Evenwood, United Kingdom
Current Conditions -  °F | °C
As of 10:20 PM on Tuesday 21 Oct 2014 (Local Time) from EGNV Reporting Station
Clear Clear  
Wind Chill: 37°   Ceiling: Unl
Heat Index: 45°   Visibility: 6mi
Dew Point: 32°   Wind: 18mph
Humidity: 61%   Direction: 290°WNW
Pressure: 29.94"   Gusts: NA
Location:  54.62°N, 1.76°W
Report Text: EGNV 212120Z 29016KT 260V320 CAVOK 07/00 Q1014
Loading
Personal Weather Stations






























Interactive Weather Map
Tropical Storm Tracking
New forecast layout! Learn more

10-Day Weather Forecast

Advertisements
Track Severe Weather on mobile